createdAt,value
2022-10-14T00:01:23.820Z,11.55
2022-10-14T00:03:55.049Z,11.52
2022-10-14T00:06:26.265Z,11.52
2022-10-14T00:08:55.008Z,11.52
2022-10-14T00:11:25.256Z,11.47
2022-10-14T00:13:55.943Z,10.91
2022-10-14T00:16:27.215Z,11.49
2022-10-14T00:18:57.499Z,11.48
2022-10-14T00:21:26.317Z,11.21
2022-10-14T00:23:55.265Z,11.47
2022-10-14T00:26:25.930Z,11.47
2022-10-14T00:28:54.659Z,11.50
2022-10-14T00:31:23.096Z,11.15
2022-10-14T00:33:51.790Z,11.46
2022-10-14T00:36:24.726Z,11.52
2022-10-14T00:38:54.009Z,11.47
2022-10-14T00:41:24.794Z,11.31
2022-10-14T00:43:59.599Z,11.46
2022-10-14T00:46:30.236Z,11.43
2022-10-14T00:48:59.996Z,11.45
2022-10-14T00:51:31.418Z,11.33
2022-10-14T00:53:59.871Z,11.46
2022-10-14T00:56:31.554Z,11.31
2022-10-14T00:59:01.648Z,11.52
2022-10-14T01:01:29.973Z,11.49
2022-10-14T01:03:58.483Z,11.38
2022-10-14T01:06:42.506Z,11.46
2022-10-14T01:09:15.527Z,11.33
2022-10-14T01:12:09.828Z,11.43
2022-10-14T01:14:47.206Z,11.41
2022-10-14T01:17:24.813Z,11.44
2022-10-14T01:20:29.731Z,11.43
2022-10-14T01:23:19.766Z,11.42
2022-10-14T01:26:01.975Z,11.33
2022-10-14T01:28:45.024Z,11.43
2022-10-14T01:31:19.506Z,11.44
2022-10-14T01:33:53.934Z,11.45
2022-10-14T01:36:27.310Z,10.76
2022-10-14T01:39:02.068Z,11.41
2022-10-14T01:41:34.565Z,11.38
2022-10-14T01:44:07.391Z,11.37
2022-10-14T01:46:39.623Z,11.09
2022-10-14T01:49:13.553Z,11.29
2022-10-14T01:51:50.476Z,11.17
2022-10-14T01:54:23.979Z,11.36
2022-10-14T01:56:54.746Z,11.24
2022-10-14T01:59:25.519Z,11.39
2022-10-14T02:01:55.360Z,11.46
2022-10-14T02:04:24.858Z,11.41
2022-10-14T02:07:01.633Z,11.37
2022-10-14T02:09:40.023Z,11.36
2022-10-14T02:12:19.071Z,11.40
2022-10-14T02:14:55.621Z,11.35
2022-10-14T02:17:32.598Z,11.34
2022-10-14T02:20:09.143Z,11.37
2022-10-14T02:22:40.872Z,11.40
2022-10-14T02:25:14.127Z,11.36
2022-10-14T02:27:45.984Z,11.28
2022-10-14T02:30:16.578Z,11.37
2022-10-14T02:32:48.192Z,11.31
2022-10-14T02:35:19.615Z,11.41
2022-10-14T02:37:50.169Z,11.36
2022-10-14T02:40:24.255Z,11.42
2022-10-14T02:42:52.777Z,11.42
2022-10-14T02:45:22.150Z,11.42
2022-10-14T02:47:51.918Z,10.95
2022-10-14T02:50:20.270Z,11.47
2022-10-14T02:52:49.194Z,11.29
2022-10-14T02:55:17.903Z,11.12
2022-10-14T02:57:46.635Z,11.10
2022-10-14T03:00:16.129Z,11.31
2022-10-14T03:02:44.500Z,11.45
2022-10-14T03:05:14.421Z,11.36
2022-10-14T03:07:42.722Z,11.42
2022-10-14T03:10:11.179Z,11.37
2022-10-14T03:12:39.627Z,11.37
2022-10-14T03:15:09.523Z,11.40
2022-10-14T03:17:38.117Z,11.38
2022-10-14T03:20:07.371Z,11.34
2022-10-14T03:22:37.167Z,11.34
2022-10-14T03:25:05.780Z,11.43
2022-10-14T03:27:34.149Z,11.31
2022-10-14T03:30:02.883Z,11.27
2022-10-14T03:32:31.375Z,11.33
2022-10-14T03:34:59.778Z,11.31
2022-10-14T03:37:28.127Z,11.27
2022-10-14T03:39:57.939Z,11.30
2022-10-14T03:42:26.544Z,11.30
2022-10-14T03:44:54.963Z,11.19
2022-10-14T03:47:23.608Z,11.35
2022-10-14T03:49:52.641Z,11.34
2022-10-14T03:52:21.505Z,11.37
2022-10-14T03:54:50.007Z,11.38
2022-10-14T03:57:19.819Z,11.38
2022-10-14T03:59:48.178Z,11.34
2022-10-14T04:02:16.500Z,11.33
2022-10-14T04:04:45.342Z,11.32
2022-10-14T04:07:13.683Z,11.32
2022-10-14T04:09:42.071Z,11.30
2022-10-14T04:12:10.415Z,11.30
2022-10-14T04:14:40.551Z,11.30
2022-10-14T04:17:08.931Z,11.34
2022-10-14T04:19:37.323Z,11.32
2022-10-14T04:22:05.983Z,10.94
2022-10-14T04:24:34.699Z,11.33
2022-10-14T04:27:03.119Z,11.31
2022-10-14T04:29:31.482Z,11.13
2022-10-14T04:32:01.529Z,11.33
2022-10-14T04:34:29.855Z,11.34
2022-10-14T04:36:58.404Z,10.94
2022-10-14T04:39:26.879Z,11.37
2022-10-14T04:41:55.138Z,11.33
2022-10-14T04:44:23.874Z,11.31
2022-10-14T04:46:52.263Z,11.30
2022-10-14T04:49:22.761Z,11.30
2022-10-14T04:51:51.061Z,11.32
2022-10-14T04:54:19.567Z,11.33
2022-10-14T04:56:48.031Z,10.81
2022-10-14T04:59:16.545Z,11.26
2022-10-14T05:01:44.915Z,11.35
2022-10-14T05:04:13.405Z,11.30
2022-10-14T05:06:43.536Z,11.42
2022-10-14T05:09:11.903Z,11.41
2022-10-14T05:11:40.280Z,11.37
2022-10-14T05:14:08.686Z,11.47
2022-10-14T05:16:36.979Z,11.38
2022-10-14T05:19:05.520Z,11.34
2022-10-14T05:21:33.995Z,11.35
2022-10-14T05:24:04.215Z,11.37
2022-10-14T05:26:32.787Z,11.38
2022-10-14T05:29:01.250Z,11.40
2022-10-14T05:31:29.559Z,11.40
2022-10-14T05:33:57.951Z,11.38
2022-10-14T05:36:26.459Z,11.40
2022-10-14T05:38:58.786Z,11.40
2022-10-14T05:41:28.655Z,11.35
2022-10-14T05:43:57.093Z,11.38
2022-10-14T05:46:25.511Z,11.36
2022-10-14T05:48:53.823Z,11.40
2022-10-14T05:51:23.093Z,11.10
2022-10-14T05:53:51.420Z,11.38
2022-10-14T05:56:20.391Z,11.33
2022-10-14T05:58:50.199Z,11.33
2022-10-14T06:01:18.519Z,11.33
2022-10-14T06:03:46.881Z,11.34
2022-10-14T06:06:15.879Z,11.37
2022-10-14T06:08:45.167Z,11.30
2022-10-14T06:11:14.030Z,11.40
2022-10-14T06:13:43.454Z,11.41
2022-10-14T06:16:15.089Z,11.45
2022-10-14T06:18:43.471Z,11.44
2022-10-14T06:21:12.969Z,11.45
2022-10-14T06:23:41.303Z,11.48
2022-10-14T06:26:10.334Z,11.49
2022-10-14T06:28:39.326Z,11.50
2022-10-14T06:31:08.435Z,11.51
2022-10-14T06:33:38.276Z,11.53
2022-10-14T06:36:08.312Z,11.54
2022-10-14T06:38:36.659Z,11.50
2022-10-14T06:41:05.063Z,11.58
2022-10-14T06:43:35.418Z,11.59
2022-10-14T06:46:04.926Z,11.48
2022-10-14T06:48:33.468Z,11.65
2022-10-14T06:51:04.122Z,11.62
2022-10-14T06:53:32.651Z,10.62
2022-10-14T06:56:02.348Z,11.65
2022-10-14T06:58:31.355Z,11.64
2022-10-14T07:01:03.672Z,11.67
2022-10-14T07:03:32.514Z,11.67
2022-10-14T07:06:03.986Z,11.72
2022-10-14T07:08:32.474Z,11.71
2022-10-14T07:11:01.196Z,11.76
2022-10-14T07:13:29.695Z,11.75
2022-10-14T07:15:58.115Z,11.83
2022-10-14T07:18:26.913Z,11.78
2022-10-14T07:20:55.199Z,11.82
2022-10-14T07:23:25.055Z,11.86
2022-10-14T07:25:53.732Z,11.95
2022-10-14T07:28:22.099Z,11.72
2022-10-14T07:30:59.430Z,11.88
2022-10-14T07:33:28.245Z,11.82
2022-10-14T07:35:56.935Z,11.80
2022-10-14T07:38:26.674Z,11.82
2022-10-14T07:41:00.452Z,11.87
2022-10-14T07:43:28.572Z,11.77
2022-10-14T07:46:01.874Z,11.74
2022-10-14T07:48:33.020Z,11.95
2022-10-14T07:51:13.517Z,11.73
2022-10-14T07:53:43.345Z,11.67
2022-10-14T07:56:11.857Z,11.97
2022-10-14T07:58:44.320Z,11.84
2022-10-14T08:01:15.018Z,12.00
2022-10-14T08:03:44.000Z,11.95
2022-10-14T08:06:12.982Z,11.97
2022-10-14T08:08:44.155Z,11.98
2022-10-14T08:11:14.827Z,12.01
2022-10-14T08:13:46.185Z,11.98
2022-10-14T08:16:16.959Z,11.81
2022-10-14T08:18:46.279Z,11.98
2022-10-14T08:21:15.902Z,11.91
2022-10-14T08:23:45.813Z,11.97
2022-10-14T08:26:21.707Z,12.00
2022-10-14T08:28:50.786Z,12.02
2022-10-14T08:31:19.459Z,11.99
2022-10-14T08:33:48.243Z,11.94
2022-10-14T08:36:17.398Z,12.09
2022-10-14T08:38:47.667Z,11.94
2022-10-14T08:41:32.219Z,12.06
2022-10-14T08:44:12.702Z,12.16
2022-10-14T08:46:49.405Z,12.19
2022-10-14T08:49:27.270Z,12.19
2022-10-14T08:52:00.794Z,12.35
2022-10-14T08:54:38.225Z,12.34
2022-10-14T08:57:07.938Z,12.40
2022-10-14T08:59:41.853Z,12.45
2022-10-14T09:02:22.999Z,12.56
2022-10-14T09:04:52.116Z,12.53
2022-10-14T09:07:22.562Z,12.33
2022-10-14T09:09:56.004Z,12.52
2022-10-14T09:12:29.739Z,12.49
2022-10-14T09:15:03.085Z,12.46
2022-10-14T09:17:37.992Z,12.61
2022-10-14T09:20:18.156Z,12.62
2022-10-14T09:22:48.541Z,12.74
2022-10-14T09:25:19.723Z,12.77
2022-10-14T09:27:48.495Z,12.76
2022-10-14T09:30:19.360Z,12.44
2022-10-14T09:32:51.614Z,12.30
2022-10-14T09:35:26.520Z,12.72
2022-10-14T09:37:55.624Z,12.60
2022-10-14T09:40:31.155Z,12.90
2022-10-14T09:43:04.395Z,12.65
2022-10-14T09:45:49.468Z,12.98
2022-10-14T09:48:22.039Z,13.14
2022-10-14T09:50:53.111Z,13.19
2022-10-14T09:53:29.235Z,13.30
2022-10-14T09:56:01.209Z,13.29
2022-10-14T09:58:34.273Z,13.43
2022-10-14T10:01:03.711Z,13.33
2022-10-14T10:03:33.986Z,13.44
2022-10-14T10:06:06.020Z,13.23
2022-10-14T10:08:36.199Z,13.39
2022-10-14T10:11:09.442Z,13.47
2022-10-14T10:13:41.750Z,13.44
2022-10-14T10:16:21.027Z,13.06
2022-10-14T10:18:49.864Z,13.53
2022-10-14T10:21:21.386Z,13.48
2022-10-14T10:23:55.520Z,13.59
2022-10-14T10:26:31.799Z,13.62
2022-10-14T10:29:02.719Z,13.65
2022-10-14T10:31:53.418Z,13.72
2022-10-14T10:34:54.318Z,13.77
2022-10-14T10:37:31.133Z,13.65
2022-10-14T10:40:31.892Z,13.71
2022-10-14T10:43:21.807Z,13.74
2022-10-14T10:46:02.388Z,13.08
2022-10-14T10:48:43.055Z,13.55
2022-10-14T10:51:15.767Z,13.53
2022-10-14T10:54:03.221Z,13.49
2022-10-14T10:56:38.915Z,13.24
2022-10-14T10:59:35.357Z,13.54
2022-10-14T11:02:28.709Z,13.49
2022-10-14T11:05:03.918Z,12.70
2022-10-14T11:07:59.925Z,13.67
2022-10-14T11:10:52.557Z,13.75
2022-10-14T11:13:29.360Z,13.73
2022-10-14T11:16:08.339Z,13.90
2022-10-14T11:18:46.456Z,13.85
2022-10-14T11:21:25.963Z,13.77
2022-10-14T11:24:04.693Z,13.57
2022-10-14T11:26:53.492Z,13.62
2022-10-14T11:29:47.397Z,13.58
2022-10-14T11:32:24.063Z,13.73
2022-10-14T11:35:06.235Z,13.51
2022-10-14T11:37:45.144Z,13.69
2022-10-14T11:40:22.567Z,13.56
2022-10-14T11:43:07.214Z,13.85
2022-10-14T11:45:51.852Z,13.98
2022-10-14T11:48:39.451Z,14.06
2022-10-14T11:51:14.486Z,14.06
2022-10-14T11:53:50.765Z,14.04
2022-10-14T11:56:30.659Z,13.83
2022-10-14T11:59:21.743Z,14.00
2022-10-14T12:01:53.940Z,14.04
2022-10-14T12:04:29.900Z,14.02
2022-10-14T12:07:05.828Z,13.76
2022-10-14T12:09:40.756Z,13.98
2022-10-14T12:12:11.835Z,13.77
2022-10-14T12:14:44.194Z,14.04
2022-10-14T12:17:20.765Z,14.05
2022-10-14T12:19:52.597Z,14.08
2022-10-14T12:22:24.529Z,14.09
2022-10-14T12:24:55.724Z,14.05
2022-10-14T12:27:26.992Z,14.07
2022-10-14T12:29:57.622Z,14.05
2022-10-14T12:32:27.564Z,14.05
2022-10-14T12:34:58.415Z,13.76
2022-10-14T12:37:51.617Z,14.05
2022-10-14T12:40:31.262Z,13.99
2022-10-14T12:43:04.142Z,13.86
2022-10-14T12:45:34.732Z,14.04
2022-10-14T12:48:08.566Z,14.06
2022-10-14T12:50:40.368Z,14.15
2022-10-14T12:53:17.932Z,14.11
2022-10-14T12:55:51.767Z,13.90
2022-10-14T12:58:30.461Z,14.12
2022-10-14T13:01:03.588Z,14.10
2022-10-14T13:03:36.126Z,13.99
2022-10-14T13:06:32.618Z,14.17
2022-10-14T13:09:42.024Z,14.12
2022-10-14T13:12:42.247Z,14.12
2022-10-14T13:15:59.780Z,14.07
2022-10-14T13:18:51.009Z,14.13
2022-10-14T13:21:48.867Z,13.87
2022-10-14T13:24:24.399Z,14.01
2022-10-14T13:27:10.630Z,13.52
2022-10-14T13:30:04.332Z,13.86
2022-10-14T13:32:41.263Z,13.80
2022-10-14T13:35:19.959Z,13.77
2022-10-14T13:37:57.957Z,13.75
2022-10-14T13:40:31.844Z,13.74
2022-10-14T13:43:02.129Z,13.71
2022-10-14T13:45:38.375Z,12.30
2022-10-14T13:48:14.014Z,13.62
2022-10-14T13:50:44.351Z,13.59
2022-10-14T13:53:17.880Z,13.56
2022-10-14T13:55:54.427Z,13.64
2022-10-14T13:58:24.324Z,13.65
2022-10-14T14:01:01.742Z,13.65
2022-10-14T14:03:34.035Z,13.62
2022-10-14T14:06:03.464Z,13.63
2022-10-14T14:08:40.810Z,13.68
2022-10-14T14:11:19.043Z,13.55
2022-10-14T14:13:57.556Z,13.74
2022-10-14T14:16:34.034Z,13.74
2022-10-14T14:19:08.363Z,13.76
2022-10-14T14:21:37.473Z,13.76
2022-10-14T14:24:17.407Z,13.74
2022-10-14T14:26:47.930Z,13.72
2022-10-14T14:29:19.270Z,13.71
2022-10-14T14:34:39.842Z,13.74
2022-10-14T14:39:58.177Z,13.77
2022-10-14T14:42:29.733Z,13.74
2022-10-14T14:45:02.792Z,13.74
2022-10-14T14:47:33.384Z,13.70
2022-10-14T14:50:31.398Z,13.56
2022-10-14T14:52:52.999Z,13.54
2022-10-14T14:55:43.607Z,13.60
2022-10-14T14:58:24.387Z,13.57
2022-10-14T15:00:55.095Z,13.55
2022-10-14T15:03:25.344Z,13.54
2022-10-14T15:05:58.686Z,13.59
2022-10-14T15:08:30.211Z,13.55
2022-10-14T15:11:00.628Z,13.52
2022-10-14T15:13:45.651Z,13.61
2022-10-14T15:16:14.356Z,13.60
2022-10-14T15:18:43.819Z,13.62
2022-10-14T15:21:20.308Z,13.66
2022-10-14T15:24:03.519Z,13.69
2022-10-14T15:26:34.980Z,13.60
2022-10-14T15:29:16.025Z,12.99
2022-10-14T15:31:46.391Z,13.57
2022-10-14T15:34:20.924Z,13.55
2022-10-14T15:36:52.393Z,13.59
2022-10-14T15:39:21.795Z,13.55
2022-10-14T15:41:50.234Z,13.55
2022-10-14T15:44:20.348Z,13.56
2022-10-14T15:47:06.299Z,13.54
2022-10-14T15:49:39.283Z,13.28
2022-10-14T15:52:07.571Z,13.47
2022-10-14T15:54:36.543Z,13.48
2022-10-14T15:57:05.899Z,13.35
2022-10-14T15:59:36.078Z,13.31
2022-10-14T16:02:05.556Z,13.26
2022-10-14T16:04:37.264Z,13.42
2022-10-14T16:07:08.267Z,13.40
2022-10-14T16:09:36.918Z,12.83
2022-10-14T16:12:06.637Z,13.38
2022-10-14T16:14:36.665Z,13.35
2022-10-14T16:17:05.350Z,13.24
2022-10-14T16:19:35.067Z,13.17
2022-10-14T16:22:03.639Z,13.15
2022-10-14T16:24:31.894Z,13.15
2022-10-14T16:27:00.387Z,12.91
2022-10-14T16:29:28.708Z,13.01
2022-10-14T16:31:59.402Z,12.98
2022-10-14T16:34:27.771Z,12.74
2022-10-14T16:36:56.154Z,12.93
2022-10-14T16:39:24.928Z,12.83
2022-10-14T16:41:53.555Z,12.90
2022-10-14T16:44:28.148Z,12.90
2022-10-14T16:47:18.891Z,12.87
2022-10-14T16:49:49.357Z,12.83
2022-10-14T16:52:18.455Z,12.73
2022-10-14T16:54:47.023Z,12.82
2022-10-14T16:57:16.153Z,12.77
2022-10-14T16:59:44.931Z,12.75
2022-10-14T17:02:17.937Z,12.59
2022-10-14T17:04:48.390Z,12.76
2022-10-14T17:07:17.669Z,12.39
2022-10-14T17:09:46.246Z,12.71
2022-10-14T17:12:14.982Z,12.66
2022-10-14T17:14:43.307Z,12.59
2022-10-14T17:17:13.267Z,12.73
2022-10-14T17:19:43.449Z,12.16
2022-10-14T17:22:12.439Z,12.67
2022-10-14T17:24:41.059Z,12.69
2022-10-14T17:27:09.605Z,12.69
2022-10-14T17:29:38.345Z,12.67
2022-10-14T17:32:06.917Z,12.76
2022-10-14T17:34:35.886Z,12.58
2022-10-14T17:39:37.673Z,12.60
2022-10-14T17:42:06.263Z,12.62
2022-10-14T17:44:34.661Z,12.64
2022-10-14T17:47:03.434Z,12.66
2022-10-14T17:49:32.675Z,12.65
2022-10-14T17:52:02.654Z,12.43
2022-10-14T17:54:32.424Z,12.69
2022-10-14T17:57:00.929Z,12.67
2022-10-14T17:59:29.349Z,12.36
2022-10-14T18:02:02.650Z,12.65
2022-10-14T18:04:33.405Z,12.62
2022-10-14T18:07:02.735Z,12.60
2022-10-14T18:09:34.224Z,12.62
2022-10-14T18:12:08.689Z,12.56
2022-10-14T18:14:38.203Z,12.61
2022-10-14T18:17:06.756Z,12.62
2022-10-14T18:19:35.587Z,12.58
2022-10-14T18:22:04.295Z,12.59
2022-10-14T18:24:38.664Z,12.43
2022-10-14T18:27:07.818Z,12.59
2022-10-14T18:29:36.502Z,12.63
2022-10-14T18:32:04.931Z,12.25
2022-10-14T18:34:33.864Z,11.98
2022-10-14T18:37:02.591Z,12.58
2022-10-14T18:39:32.120Z,12.55
2022-10-14T18:42:02.247Z,12.45
2022-10-14T18:44:30.977Z,12.31
2022-10-14T18:46:59.841Z,12.52
2022-10-14T18:49:29.646Z,12.54
2022-10-14T18:51:59.421Z,12.41
2022-10-14T18:54:30.547Z,12.54
2022-10-14T18:57:00.417Z,12.51
2022-10-14T18:59:32.480Z,12.49
2022-10-14T19:02:02.616Z,12.54
2022-10-14T19:04:32.320Z,12.40
2022-10-14T19:07:02.310Z,12.51
2022-10-14T19:09:35.813Z,12.53
2022-10-14T19:12:26.983Z,12.54
2022-10-14T19:14:58.436Z,12.47
2022-10-14T19:17:28.542Z,11.85
2022-10-14T19:20:01.207Z,12.54
2022-10-14T19:22:32.069Z,12.50
2022-10-14T19:25:01.773Z,12.49
2022-10-14T19:27:30.916Z,12.52
2022-10-14T19:30:02.034Z,12.45
2022-10-14T19:32:31.806Z,12.11
2022-10-14T19:35:02.377Z,12.58
2022-10-14T19:37:31.828Z,12.33
2022-10-14T19:40:02.490Z,12.46
2022-10-14T19:42:32.697Z,12.54
2022-10-14T19:45:03.946Z,12.04
2022-10-14T19:47:34.144Z,12.52
2022-10-14T19:50:03.789Z,12.33
2022-10-14T19:52:33.430Z,12.40
2022-10-14T19:55:03.385Z,12.56
2022-10-14T19:57:33.251Z,12.57
2022-10-14T20:00:04.728Z,12.58
2022-10-14T20:02:34.652Z,12.57
2022-10-14T20:05:04.784Z,12.57
2022-10-14T20:07:34.380Z,12.37
2022-10-14T20:10:04.133Z,12.59
2022-10-14T20:12:34.708Z,12.27
2022-10-14T20:15:06.331Z,12.47
2022-10-14T20:17:36.072Z,12.59
2022-10-14T20:20:06.220Z,11.96
2022-10-14T20:22:36.064Z,12.47
2022-10-14T20:25:06.038Z,12.61
2022-10-14T20:27:35.828Z,12.65
2022-10-14T20:30:07.780Z,12.65
2022-10-14T20:32:37.657Z,12.64
2022-10-14T20:35:11.541Z,12.66
2022-10-14T20:37:44.716Z,12.65
2022-10-14T20:40:15.617Z,12.70
2022-10-14T20:42:45.504Z,12.54
2022-10-14T20:45:15.319Z,12.48
2022-10-14T20:47:43.903Z,12.46
2022-10-14T20:50:12.364Z,12.01
2022-10-14T20:52:40.822Z,12.68
2022-10-14T20:55:09.685Z,12.41
2022-10-14T20:57:38.074Z,12.68
2022-10-14T21:00:07.404Z,12.68
2022-10-14T21:02:37.247Z,12.66
2022-10-14T21:05:06.422Z,12.70
2022-10-14T21:07:35.455Z,12.67
2022-10-14T21:10:04.172Z,12.66
2022-10-14T21:12:32.556Z,12.65
2022-10-14T21:15:00.944Z,12.65
2022-10-14T21:17:29.402Z,12.65
2022-10-14T21:19:59.359Z,12.68
2022-10-14T21:22:55.343Z,12.69
2022-10-14T21:25:23.751Z,12.67
2022-10-14T21:27:52.089Z,12.51
2022-10-14T21:30:20.465Z,12.67
2022-10-14T21:32:48.842Z,12.69
2022-10-14T21:35:18.595Z,11.42
2022-10-14T21:37:46.971Z,12.75
2022-10-14T21:40:15.716Z,12.72
2022-10-14T21:42:44.127Z,12.75
2022-10-14T21:45:12.610Z,12.77
2022-10-14T21:47:41.033Z,12.72
2022-10-14T21:50:10.093Z,12.74
2022-10-14T21:52:39.921Z,12.76
2022-10-14T21:55:08.978Z,12.49
2022-10-14T21:57:37.799Z,12.72
2022-10-14T22:00:08.939Z,12.73
2022-10-14T22:02:37.611Z,12.56
2022-10-14T22:05:06.683Z,12.77
2022-10-14T22:07:35.053Z,12.55
2022-10-14T22:10:25.636Z,12.80
2022-10-14T22:12:53.967Z,12.76
2022-10-14T22:15:22.763Z,12.81
2022-10-14T22:17:51.344Z,12.77
2022-10-14T22:20:20.189Z,12.81
2022-10-14T22:22:48.555Z,12.74
2022-10-14T22:25:18.640Z,12.59
2022-10-14T22:27:47.352Z,12.80
2022-10-14T22:30:16.731Z,12.79
2022-10-14T22:32:45.419Z,12.77
2022-10-14T22:35:13.708Z,12.72
2022-10-14T22:37:42.260Z,12.74
2022-10-14T22:40:12.004Z,12.64
2022-10-14T22:42:42.463Z,12.61
2022-10-14T22:45:12.688Z,12.57
2022-10-14T22:47:41.032Z,12.61
2022-10-14T22:50:10.051Z,12.56
2022-10-14T22:52:39.129Z,12.60
2022-10-14T22:55:09.141Z,12.52
2022-10-14T22:57:37.549Z,12.51
2022-10-14T23:00:08.499Z,12.50
2022-10-14T23:02:37.009Z,12.54
2022-10-14T23:05:06.012Z,12.48
2022-10-14T23:07:34.720Z,12.51
2022-10-14T23:10:03.143Z,12.29
2022-10-14T23:12:31.593Z,12.40
2022-10-14T23:15:00.092Z,12.43
2022-10-14T23:17:31.061Z,12.36
2022-10-14T23:19:59.367Z,12.34
2022-10-14T23:22:28.008Z,12.37
2022-10-14T23:24:56.395Z,12.38
2022-10-14T23:27:24.838Z,11.93
2022-10-14T23:29:53.259Z,12.21
2022-10-14T23:32:21.630Z,12.29
2022-10-14T23:34:51.595Z,12.05
2022-10-14T23:37:20.334Z,12.22
2022-10-14T23:39:49.461Z,12.26
2022-10-14T23:42:17.875Z,12.24
2022-10-14T23:44:46.311Z,12.25
2022-10-14T23:47:14.797Z,12.28
2022-10-14T23:49:43.182Z,12.23
2022-10-14T23:52:12.956Z,12.26
2022-10-14T23:54:41.303Z,12.26
2022-10-14T23:57:09.755Z,12.25
2022-10-14T23:59:38.218Z,12.24
